sensor_id;sensor_type;location;lat;lon;timestamp;P1;durP1;ratioP1;P2;durP2;ratioP2
44145;SDS011;29809;52.432;4.780;2024-03-08T00:01:39;7.53;;;6.82;;
44145;SDS011;29809;52.432;4.780;2024-03-08T00:04:04;8.52;;;7.72;;
44145;SDS011;29809;52.432;4.780;2024-03-08T00:06:31;8.50;;;7.70;;
44145;SDS011;29809;52.432;4.780;2024-03-08T00:08:56;8.60;;;7.80;;
44145;SDS011;29809;52.432;4.780;2024-03-08T00:11:21;8.13;;;7.40;;
44145;SDS011;29809;52.432;4.780;2024-03-08T00:13:47;8.13;;;7.40;;
44145;SDS011;29809;52.432;4.780;2024-03-08T00:16:12;7.95;;;7.15;;
44145;SDS011;29809;52.432;4.780;2024-03-08T00:18:37;7.88;;;7.18;;
44145;SDS011;29809;52.432;4.780;2024-03-08T00:21:02;9.23;;;8.32;;
44145;SDS011;29809;52.432;4.780;2024-03-08T00:23:28;8.40;;;7.60;;
44145;SDS011;29809;52.432;4.780;2024-03-08T00:25:53;8.43;;;7.53;;
44145;SDS011;29809;52.432;4.780;2024-03-08T00:28:19;7.70;;;6.95;;
44145;SDS011;29809;52.432;4.780;2024-03-08T00:30:45;7.43;;;6.70;;
44145;SDS011;29809;52.432;4.780;2024-03-08T00:33:11;8.32;;;7.50;;
44145;SDS011;29809;52.432;4.780;2024-03-08T00:35:37;7.57;;;6.80;;
44145;SDS011;29809;52.432;4.780;2024-03-08T00:38:02;8.75;;;7.95;;
44145;SDS011;29809;52.432;4.780;2024-03-08T00:40:27;8.60;;;7.38;;
44145;SDS011;29809;52.432;4.780;2024-03-08T00:42:53;7.72;;;6.93;;
44145;SDS011;29809;52.432;4.780;2024-03-08T00:45:19;7.18;;;6.47;;
44145;SDS011;29809;52.432;4.780;2024-03-08T00:47:44;8.25;;;7.40;;
44145;SDS011;29809;52.432;4.780;2024-03-08T00:50:09;7.93;;;7.05;;
44145;SDS011;29809;52.432;4.780;2024-03-08T00:52:35;7.60;;;6.93;;
44145;SDS011;29809;52.432;4.780;2024-03-08T00:55:00;8.43;;;7.53;;
44145;SDS011;29809;52.432;4.780;2024-03-08T00:57:26;8.05;;;7.25;;
44145;SDS011;29809;52.432;4.780;2024-03-08T00:59:51;7.88;;;7.18;;
44145;SDS011;29809;52.432;4.780;2024-03-08T01:02:17;8.32;;;7.55;;
44145;SDS011;29809;52.432;4.780;2024-03-08T01:04:44;8.52;;;7.43;;
44145;SDS011;29809;52.432;4.780;2024-03-08T01:07:09;8.65;;;7.80;;
44145;SDS011;29809;52.432;4.780;2024-03-08T01:09:34;7.50;;;6.80;;
44145;SDS011;29809;52.432;4.780;2024-03-08T01:11:59;8.10;;;7.40;;
44145;SDS011;29809;52.432;4.780;2024-03-08T01:14:26;8.15;;;7.40;;
44145;SDS011;29809;52.432;4.780;2024-03-08T01:16:51;8.52;;;7.70;;
44145;SDS011;29809;52.432;4.780;2024-03-08T01:19:16;7.80;;;7.10;;
44145;SDS011;29809;52.432;4.780;2024-03-08T01:21:42;8.10;;;7.40;;
44145;SDS011;29809;52.432;4.780;2024-03-08T01:24:07;7.38;;;6.55;;
44145;SDS011;29809;52.432;4.780;2024-03-08T01:26:33;7.95;;;7.15;;
44145;SDS011;29809;52.432;4.780;2024-03-08T01:28:59;7.50;;;6.80;;
44145;SDS011;29809;52.432;4.780;2024-03-08T01:31:24;7.82;;;7.13;;
44145;SDS011;29809;52.432;4.780;2024-03-08T01:33:50;7.68;;;6.95;;
44145;SDS011;29809;52.432;4.780;2024-03-08T01:36:15;7.93;;;7.13;;
44145;SDS011;29809;52.432;4.780;2024-03-08T01:38:40;7.90;;;7.20;;
44145;SDS011;29809;52.432;4.780;2024-03-08T01:41:06;8.95;;;7.50;;
44145;SDS011;29809;52.432;4.780;2024-03-08T01:43:31;8.13;;;7.32;;
44145;SDS011;29809;52.432;4.780;2024-03-08T01:45:57;7.80;;;7.07;;
44145;SDS011;29809;52.432;4.780;2024-03-08T01:48:24;7.88;;;7.13;;
44145;SDS011;29809;52.432;4.780;2024-03-08T01:50:50;8.35;;;7.50;;
44145;SDS011;29809;52.432;4.780;2024-03-08T01:53:15;8.00;;;7.20;;
44145;SDS011;29809;52.432;4.780;2024-03-08T01:55:42;7.65;;;6.80;;
44145;SDS011;29809;52.432;4.780;2024-03-08T01:58:09;7.97;;;7.22;;
44145;SDS011;29809;52.432;4.780;2024-03-08T02:00:35;7.80;;;7.05;;
44145;SDS011;29809;52.432;4.780;2024-03-08T02:03:01;8.57;;;7.60;;
44145;SDS011;29809;52.432;4.780;2024-03-08T02:05:27;7.68;;;6.70;;
44145;SDS011;29809;52.432;4.780;2024-03-08T02:07:52;7.57;;;6.88;;
44145;SDS011;29809;52.432;4.780;2024-03-08T02:10:17;7.55;;;6.75;;
44145;SDS011;29809;52.432;4.780;2024-03-08T02:12:43;8.43;;;7.03;;
44145;SDS011;29809;52.432;4.780;2024-03-08T02:15:08;7.65;;;6.95;;
44145;SDS011;29809;52.432;4.780;2024-03-08T02:17:34;8.18;;;7.40;;
44145;SDS011;29809;52.432;4.780;2024-03-08T02:19:59;8.00;;;7.10;;
44145;SDS011;29809;52.432;4.780;2024-03-08T02:22:26;8.43;;;7.57;;
44145;SDS011;29809;52.432;4.780;2024-03-08T02:24:51;7.85;;;7.15;;
44145;SDS011;29809;52.432;4.780;2024-03-08T02:27:22;7.93;;;7.20;;
44145;SDS011;29809;52.432;4.780;2024-03-08T02:29:48;7.38;;;6.68;;
44145;SDS011;29809;52.432;4.780;2024-03-08T02:32:13;7.60;;;6.82;;
44145;SDS011;29809;52.432;4.780;2024-03-08T02:34:38;7.93;;;7.22;;
44145;SDS011;29809;52.432;4.780;2024-03-08T02:37:04;8.13;;;7.30;;
44145;SDS011;29809;52.432;4.780;2024-03-08T02:39:29;7.97;;;7.18;;
44145;SDS011;29809;52.432;4.780;2024-03-08T02:41:54;7.63;;;6.80;;
44145;SDS011;29809;52.432;4.780;2024-03-08T02:44:20;7.70;;;7.00;;
44145;SDS011;29809;52.432;4.780;2024-03-08T02:46:46;7.97;;;7.20;;
44145;SDS011;29809;52.432;4.780;2024-03-08T02:49:11;7.90;;;7.20;;
44145;SDS011;29809;52.432;4.780;2024-03-08T02:51:37;11.52;;;7.38;;
44145;SDS011;29809;52.432;4.780;2024-03-08T02:54:02;8.35;;;7.55;;
44145;SDS011;29809;52.432;4.780;2024-03-08T02:56:29;8.45;;;7.20;;
44145;SDS011;29809;52.432;4.780;2024-03-08T02:58:55;7.38;;;6.68;;
44145;SDS011;29809;52.432;4.780;2024-03-08T03:01:20;7.45;;;6.75;;
44145;SDS011;29809;52.432;4.780;2024-03-08T03:03:45;8.52;;;7.70;;
44145;SDS011;29809;52.432;4.780;2024-03-08T03:06:12;9.20;;;8.27;;
44145;SDS011;29809;52.432;4.780;2024-03-08T03:08:37;7.80;;;7.00;;
44145;SDS011;29809;52.432;4.780;2024-03-08T03:11:03;8.35;;;7.45;;
44145;SDS011;29809;52.432;4.780;2024-03-08T03:13:29;8.30;;;7.50;;
44145;SDS011;29809;52.432;4.780;2024-03-08T03:15:54;8.85;;;8.05;;
44145;SDS011;29809;52.432;4.780;2024-03-08T03:18:20;8.03;;;7.23;;
44145;SDS011;29809;52.432;4.780;2024-03-08T03:20:48;8.03;;;7.23;;
44145;SDS011;29809;52.432;4.780;2024-03-08T03:23:14;8.15;;;7.45;;
44145;SDS011;29809;52.432;4.780;2024-03-08T03:25:39;8.73;;;7.85;;
44145;SDS011;29809;52.432;4.780;2024-03-08T03:28:06;8.27;;;7.47;;
44145;SDS011;29809;52.432;4.780;2024-03-08T03:30:32;7.25;;;6.65;;
44145;SDS011;29809;52.432;4.780;2024-03-08T03:33:00;8.15;;;7.45;;
44145;SDS011;29809;52.432;4.780;2024-03-08T03:35:26;7.63;;;6.82;;
44145;SDS011;29809;52.432;4.780;2024-03-08T03:37:51;8.33;;;7.33;;
44145;SDS011;29809;52.432;4.780;2024-03-08T03:40:30;8.20;;;7.50;;
44145;SDS011;29809;52.432;4.780;2024-03-08T03:42:56;8.45;;;7.55;;
44145;SDS011;29809;52.432;4.780;2024-03-08T03:45:21;8.38;;;7.65;;
44145;SDS011;29809;52.432;4.780;2024-03-08T03:47:46;9.68;;;8.02;;
44145;SDS011;29809;52.432;4.780;2024-03-08T03:50:12;8.00;;;7.20;;
44145;SDS011;29809;52.432;4.780;2024-03-08T03:52:37;7.93;;;7.23;;
44145;SDS011;29809;52.432;4.780;2024-03-08T03:55:02;8.80;;;7.90;;
44145;SDS011;29809;52.432;4.780;2024-03-08T03:57:29;8.55;;;7.75;;
44145;SDS011;29809;52.432;4.780;2024-03-08T03:59:55;8.35;;;7.55;;
44145;SDS011;29809;52.432;4.780;2024-03-08T04:02:20;7.80;;;7.03;;
44145;SDS011;29809;52.432;4.780;2024-03-08T04:04:46;7.68;;;6.97;;
44145;SDS011;29809;52.432;4.780;2024-03-08T04:07:11;8.35;;;7.50;;
44145;SDS011;29809;52.432;4.780;2024-03-08T04:09:36;7.72;;;6.97;;
44145;SDS011;29809;52.432;4.780;2024-03-08T04:12:02;7.88;;;7.18;;
44145;SDS011;29809;52.432;4.780;2024-03-08T04:14:27;7.95;;;7.20;;
44145;SDS011;29809;52.432;4.780;2024-03-08T04:16:52;8.75;;;7.63;;
44145;SDS011;29809;52.432;4.780;2024-03-08T04:19:17;8.30;;;7.50;;
44145;SDS011;29809;52.432;4.780;2024-03-08T04:21:44;8.05;;;7.22;;
44145;SDS011;29809;52.432;4.780;2024-03-08T04:24:09;8.73;;;7.43;;
44145;SDS011;29809;52.432;4.780;2024-03-08T04:26:34;10.18;;;8.25;;
44145;SDS011;29809;52.432;4.780;2024-03-08T04:28:59;8.18;;;7.38;;
44145;SDS011;29809;52.432;4.780;2024-03-08T04:31:25;8.80;;;8.00;;
44145;SDS011;29809;52.432;4.780;2024-03-08T04:33:51;7.57;;;6.88;;
44145;SDS011;29809;52.432;4.780;2024-03-08T04:36:17;7.95;;;7.15;;
44145;SDS011;29809;52.432;4.780;2024-03-08T04:38:42;7.70;;;7.00;;
44145;SDS011;29809;52.432;4.780;2024-03-08T04:41:07;8.17;;;7.40;;
44145;SDS011;29809;52.432;4.780;2024-03-08T04:43:33;8.50;;;7.68;;
44145;SDS011;29809;52.432;4.780;2024-03-08T04:45:59;8.18;;;7.45;;
44145;SDS011;29809;52.432;4.780;2024-03-08T04:48:24;7.63;;;6.65;;
44145;SDS011;29809;52.432;4.780;2024-03-08T04:50:51;8.05;;;7.28;;
44145;SDS011;29809;52.432;4.780;2024-03-08T04:53:18;8.83;;;7.93;;
44145;SDS011;29809;52.432;4.780;2024-03-08T04:55:43;8.85;;;8.05;;
44145;SDS011;29809;52.432;4.780;2024-03-08T04:58:09;8.10;;;7.30;;
44145;SDS011;29809;52.432;4.780;2024-03-08T05:00:34;8.93;;;8.03;;
44145;SDS011;29809;52.432;4.780;2024-03-08T05:03:00;8.55;;;7.70;;
44145;SDS011;29809;52.432;4.780;2024-03-08T05:05:25;9.03;;;8.13;;
44145;SDS011;29809;52.432;4.780;2024-03-08T05:07:53;8.43;;;7.63;;
44145;SDS011;29809;52.432;4.780;2024-03-08T05:10:18;8.87;;;8.07;;
44145;SDS011;29809;52.432;4.780;2024-03-08T05:12:44;7.50;;;6.80;;
44145;SDS011;29809;52.432;4.780;2024-03-08T05:15:09;8.38;;;7.57;;
44145;SDS011;29809;52.432;4.780;2024-03-08T05:17:34;7.80;;;7.00;;
44145;SDS011;29809;52.432;4.780;2024-03-08T05:20:00;8.23;;;7.53;;
44145;SDS011;29809;52.432;4.780;2024-03-08T05:22:25;8.63;;;7.73;;
44145;SDS011;29809;52.432;4.780;2024-03-08T05:24:51;9.32;;;7.82;;
44145;SDS011;29809;52.432;4.780;2024-03-08T05:27:16;8.20;;;7.40;;
44145;SDS011;29809;52.432;4.780;2024-03-08T05:29:41;8.07;;;7.27;;
44145;SDS011;29809;52.432;4.780;2024-03-08T05:32:06;7.93;;;7.22;;
44145;SDS011;29809;52.432;4.780;2024-03-08T05:34:32;8.00;;;7.30;;
44145;SDS011;29809;52.432;4.780;2024-03-08T05:36:57;7.95;;;7.25;;
44145;SDS011;29809;52.432;4.780;2024-03-08T05:39:23;9.23;;;8.43;;
44145;SDS011;29809;52.432;4.780;2024-03-08T05:41:49;8.63;;;7.73;;
44145;SDS011;29809;52.432;4.780;2024-03-08T05:44:14;8.80;;;7.90;;
44145;SDS011;29809;52.432;4.780;2024-03-08T05:46:39;9.60;;;7.90;;
44145;SDS011;29809;52.432;4.780;2024-03-08T05:49:05;8.27;;;7.47;;
44145;SDS011;29809;52.432;4.780;2024-03-08T05:51:34;8.47;;;7.70;;
44145;SDS011;29809;52.432;4.780;2024-03-08T05:54:06;8.63;;;7.60;;
44145;SDS011;29809;52.432;4.780;2024-03-08T05:56:32;8.60;;;7.53;;
44145;SDS011;29809;52.432;4.780;2024-03-08T05:58:57;8.47;;;7.77;;
44145;SDS011;29809;52.432;4.780;2024-03-08T06:01:25;8.30;;;7.50;;
44145;SDS011;29809;52.432;4.780;2024-03-08T06:03:51;8.77;;;7.97;;
44145;SDS011;29809;52.432;4.780;2024-03-08T06:06:16;7.93;;;7.22;;
44145;SDS011;29809;52.432;4.780;2024-03-08T06:08:43;22.65;;;11.70;;
44145;SDS011;29809;52.432;4.780;2024-03-08T06:11:08;60.92;;;23.08;;
44145;SDS011;29809;52.432;4.780;2024-03-08T06:13:34;60.45;;;23.20;;
44145;SDS011;29809;52.432;4.780;2024-03-08T06:16:00;54.65;;;19.77;;
44145;SDS011;29809;52.432;4.780;2024-03-08T06:18:29;50.67;;;21.13;;
44145;SDS011;29809;52.432;4.780;2024-03-08T06:20:55;49.65;;;20.63;;
44145;SDS011;29809;52.432;4.780;2024-03-08T06:23:20;31.70;;;18.05;;
44145;SDS011;29809;52.432;4.780;2024-03-08T06:25:46;44.88;;;17.48;;
44145;SDS011;29809;52.432;4.780;2024-03-08T06:28:11;36.80;;;17.30;;
44145;SDS011;29809;52.432;4.780;2024-03-08T06:30:37;29.75;;;17.33;;
44145;SDS011;29809;52.432;4.780;2024-03-08T06:33:02;26.17;;;16.50;;
44145;SDS011;29809;52.432;4.780;2024-03-08T06:35:28;26.50;;;16.35;;
44145;SDS011;29809;52.432;4.780;2024-03-08T06:37:53;24.88;;;14.20;;
44145;SDS011;29809;52.432;4.780;2024-03-08T06:40:18;24.52;;;15.45;;
44145;SDS011;29809;52.432;4.780;2024-03-08T06:42:43;24.67;;;13.50;;
44145;SDS011;29809;52.432;4.780;2024-03-08T06:45:09;20.98;;;12.93;;
44145;SDS011;29809;52.432;4.780;2024-03-08T06:47:35;26.55;;;14.30;;
44145;SDS011;29809;52.432;4.780;2024-03-08T06:50:00;23.13;;;12.13;;
44145;SDS011;29809;52.432;4.780;2024-03-08T06:52:25;22.23;;;12.80;;
44145;SDS011;29809;52.432;4.780;2024-03-08T06:54:51;22.88;;;13.50;;
44145;SDS011;29809;52.432;4.780;2024-03-08T06:57:17;21.73;;;12.90;;
44145;SDS011;29809;52.432;4.780;2024-03-08T06:59:42;20.33;;;12.23;;
44145;SDS011;29809;52.432;4.780;2024-03-08T07:02:08;16.63;;;12.77;;
44145;SDS011;29809;52.432;4.780;2024-03-08T07:04:36;17.60;;;12.48;;
44145;SDS011;29809;52.432;4.780;2024-03-08T07:07:06;16.48;;;13.18;;
44145;SDS011;29809;52.432;4.780;2024-03-08T07:09:34;16.67;;;11.07;;
44145;SDS011;29809;52.432;4.780;2024-03-08T07:12:00;14.43;;;11.40;;
44145;SDS011;29809;52.432;4.780;2024-03-08T07:14:26;19.90;;;11.10;;
44145;SDS011;29809;52.432;4.780;2024-03-08T07:16:52;14.25;;;9.77;;
44145;SDS011;29809;52.432;4.780;2024-03-08T07:19:17;14.70;;;10.70;;
44145;SDS011;29809;52.432;4.780;2024-03-08T07:21:44;15.35;;;10.13;;
44145;SDS011;29809;52.432;4.780;2024-03-08T07:24:09;12.88;;;10.23;;
44145;SDS011;29809;52.432;4.780;2024-03-08T07:26:50;15.68;;;10.05;;
44145;SDS011;29809;52.432;4.780;2024-03-08T07:29:17;14.10;;;10.93;;
44145;SDS011;29809;52.432;4.780;2024-03-08T07:31:42;12.27;;;10.97;;
44145;SDS011;29809;52.432;4.780;2024-03-08T07:34:20;12.32;;;10.95;;
44145;SDS011;29809;52.432;4.780;2024-03-08T07:36:46;13.57;;;10.30;;
44145;SDS011;29809;52.432;4.780;2024-03-08T07:39:11;12.77;;;10.17;;
44145;SDS011;29809;52.432;4.780;2024-03-08T07:41:37;11.63;;;10.40;;
44145;SDS011;29809;52.432;4.780;2024-03-08T07:44:02;13.57;;;10.65;;
44145;SDS011;29809;52.432;4.780;2024-03-08T07:46:28;13.23;;;11.20;;
44145;SDS011;29809;52.432;4.780;2024-03-08T07:48:54;11.68;;;10.57;;
44145;SDS011;29809;52.432;4.780;2024-03-08T07:51:19;12.77;;;11.05;;
44145;SDS011;29809;52.432;4.780;2024-03-08T07:53:45;11.95;;;10.60;;
44145;SDS011;29809;52.432;4.780;2024-03-08T07:56:10;10.82;;;9.82;;
44145;SDS011;29809;52.432;4.780;2024-03-08T07:58:38;12.35;;;11.15;;
44145;SDS011;29809;52.432;4.780;2024-03-08T08:01:05;11.90;;;10.88;;
44145;SDS011;29809;52.432;4.780;2024-03-08T08:03:30;11.60;;;10.43;;
44145;SDS011;29809;52.432;4.780;2024-03-08T08:05:56;13.10;;;11.77;;
44145;SDS011;29809;52.432;4.780;2024-03-08T08:08:21;12.35;;;10.85;;
44145;SDS011;29809;52.432;4.780;2024-03-08T08:10:46;12.90;;;11.73;;
44145;SDS011;29809;52.432;4.780;2024-03-08T08:13:12;13.77;;;12.45;;
44145;SDS011;29809;52.432;4.780;2024-03-08T08:15:37;13.20;;;11.90;;
44145;SDS011;29809;52.432;4.780;2024-03-08T08:18:03;13.40;;;12.10;;
44145;SDS011;29809;52.432;4.780;2024-03-08T08:20:30;12.60;;;11.40;;
44145;SDS011;29809;52.432;4.780;2024-03-08T08:22:56;13.80;;;12.25;;
44145;SDS011;29809;52.432;4.780;2024-03-08T08:25:21;13.52;;;12.23;;
44145;SDS011;29809;52.432;4.780;2024-03-08T08:27:49;13.55;;;12.23;;
44145;SDS011;29809;52.432;4.780;2024-03-08T08:30:14;13.82;;;12.52;;
44145;SDS011;29809;52.432;4.780;2024-03-08T08:32:40;12.75;;;11.65;;
44145;SDS011;29809;52.432;4.780;2024-03-08T08:35:07;15.25;;;12.57;;
44145;SDS011;29809;52.432;4.780;2024-03-08T08:37:38;13.40;;;12.10;;
44145;SDS011;29809;52.432;4.780;2024-03-08T08:40:03;12.52;;;11.35;;
44145;SDS011;29809;52.432;4.780;2024-03-08T08:42:34;13.15;;;11.95;;
44145;SDS011;29809;52.432;4.780;2024-03-08T08:45:00;13.33;;;12.03;;
44145;SDS011;29809;52.432;4.780;2024-03-08T08:47:26;12.82;;;11.52;;
44145;SDS011;29809;52.432;4.780;2024-03-08T08:49:52;13.30;;;12.00;;
44145;SDS011;29809;52.432;4.780;2024-03-08T08:52:17;13.38;;;12.13;;
44145;SDS011;29809;52.432;4.780;2024-03-08T08:54:43;13.27;;;12.02;;
44145;SDS011;29809;52.432;4.780;2024-03-08T08:57:09;13.60;;;12.40;;
44145;SDS011;29809;52.432;4.780;2024-03-08T08:59:35;14.15;;;12.73;;
44145;SDS011;29809;52.432;4.780;2024-03-08T09:02:04;14.18;;;12.77;;
44145;SDS011;29809;52.432;4.780;2024-03-08T09:04:30;14.05;;;12.68;;
44145;SDS011;29809;52.432;4.780;2024-03-08T09:06:58;14.15;;;12.75;;
44145;SDS011;29809;52.432;4.780;2024-03-08T09:09:23;13.50;;;12.15;;
44145;SDS011;29809;52.432;4.780;2024-03-08T09:11:48;13.88;;;12.27;;
44145;SDS011;29809;52.432;4.780;2024-03-08T09:14:14;14.10;;;12.70;;
44145;SDS011;29809;52.432;4.780;2024-03-08T09:16:40;13.47;;;12.17;;
44145;SDS011;29809;52.432;4.780;2024-03-08T09:19:05;18.55;;;16.77;;
44145;SDS011;29809;52.432;4.780;2024-03-08T09:21:32;15.45;;;13.95;;
44145;SDS011;29809;52.432;4.780;2024-03-08T09:23:57;15.18;;;13.68;;
44145;SDS011;29809;52.432;4.780;2024-03-08T09:26:23;15.07;;;13.45;;
44145;SDS011;29809;52.432;4.780;2024-03-08T09:28:48;15.57;;;14.05;;
44145;SDS011;29809;52.432;4.780;2024-03-08T09:31:14;16.10;;;14.50;;
44145;SDS011;29809;52.432;4.780;2024-03-08T09:33:40;15.50;;;14.03;;
44145;SDS011;29809;52.432;4.780;2024-03-08T09:36:07;13.75;;;12.45;;
44145;SDS011;29809;52.432;4.780;2024-03-08T09:38:32;14.63;;;13.32;;
44145;SDS011;29809;52.432;4.780;2024-03-08T09:40:59;14.55;;;13.07;;
44145;SDS011;29809;52.432;4.780;2024-03-08T09:43:26;15.02;;;13.73;;
44145;SDS011;29809;52.432;4.780;2024-03-08T09:45:51;15.98;;;14.48;;
44145;SDS011;29809;52.432;4.780;2024-03-08T09:48:17;14.65;;;13.18;;
44145;SDS011;29809;52.432;4.780;2024-03-08T09:50:44;14.50;;;13.20;;
44145;SDS011;29809;52.432;4.780;2024-03-08T09:53:10;13.98;;;12.77;;
44145;SDS011;29809;52.432;4.780;2024-03-08T09:55:36;13.85;;;12.50;;
44145;SDS011;29809;52.432;4.780;2024-03-08T09:58:02;13.77;;;12.43;;
44145;SDS011;29809;52.432;4.780;2024-03-08T10:00:48;14.70;;;13.30;;
44145;SDS011;29809;52.432;4.780;2024-03-08T10:03:14;14.50;;;13.07;;
44145;SDS011;29809;52.432;4.780;2024-03-08T10:05:43;15.00;;;13.50;;
44145;SDS011;29809;52.432;4.780;2024-03-08T10:08:09;14.57;;;13.23;;
44145;SDS011;29809;52.432;4.780;2024-03-08T10:10:35;15.88;;;14.25;;
44145;SDS011;29809;52.432;4.780;2024-03-08T10:13:01;14.18;;;12.88;;
44145;SDS011;29809;52.432;4.780;2024-03-08T10:15:29;14.40;;;13.05;;
44145;SDS011;29809;52.432;4.780;2024-03-08T10:17:55;15.43;;;14.00;;
44145;SDS011;29809;52.432;4.780;2024-03-08T10:20:21;15.63;;;14.20;;
44145;SDS011;29809;52.432;4.780;2024-03-08T10:22:46;14.63;;;13.13;;
44145;SDS011;29809;52.432;4.780;2024-03-08T10:25:11;14.63;;;13.30;;
44145;SDS011;29809;52.432;4.780;2024-03-08T10:27:39;14.80;;;13.50;;
44145;SDS011;29809;52.432;4.780;2024-03-08T10:30:14;14.27;;;12.82;;
44145;SDS011;29809;52.432;4.780;2024-03-08T10:32:41;14.13;;;12.82;;
44145;SDS011;29809;52.432;4.780;2024-03-08T10:35:09;14.65;;;13.25;;
44145;SDS011;29809;52.432;4.780;2024-03-08T10:37:37;14.18;;;12.77;;
44145;SDS011;29809;52.432;4.780;2024-03-08T10:40:04;14.10;;;12.70;;
44145;SDS011;29809;52.432;4.780;2024-03-08T10:48:43;15.32;;;13.90;;
44145;SDS011;29809;52.432;4.780;2024-03-08T10:50:42;14.80;;;13.20;;
44145;SDS011;29809;52.432;4.780;2024-03-08T10:53:10;14.48;;;13.07;;
44145;SDS011;29809;52.432;4.780;2024-03-08T10:55:36;14.57;;;13.27;;
44145;SDS011;29809;52.432;4.780;2024-03-08T10:58:01;14.65;;;13.25;;
44145;SDS011;29809;52.432;4.780;2024-03-08T11:00:27;13.85;;;12.45;;
44145;SDS011;29809;52.432;4.780;2024-03-08T11:02:53;14.68;;;13.27;;
44145;SDS011;29809;52.432;4.780;2024-03-08T11:05:31;14.70;;;13.30;;
44145;SDS011;29809;52.432;4.780;2024-03-08T11:08:00;14.23;;;12.93;;
44145;SDS011;29809;52.432;4.780;2024-03-08T11:10:26;14.35;;;12.95;;
44145;SDS011;29809;52.432;4.780;2024-03-08T11:12:51;15.95;;;14.45;;
44145;SDS011;29809;52.432;4.780;2024-03-08T11:15:17;14.90;;;13.40;;
44145;SDS011;29809;52.432;4.780;2024-03-08T11:17:48;15.30;;;13.80;;
44145;SDS011;29809;52.432;4.780;2024-03-08T11:20:14;16.17;;;14.55;;
44145;SDS011;29809;52.432;4.780;2024-03-08T11:22:49;14.68;;;13.27;;
44145;SDS011;29809;52.432;4.780;2024-03-08T11:28:13;16.30;;;14.45;;
44145;SDS011;29809;52.432;4.780;2024-03-08T11:33:16;16.07;;;14.43;;
44145;SDS011;29809;52.432;4.780;2024-03-08T11:35:41;15.40;;;13.80;;
44145;SDS011;29809;52.432;4.780;2024-03-08T11:38:07;16.37;;;14.70;;
44145;SDS011;29809;52.432;4.780;2024-03-08T11:40:33;17.30;;;15.50;;
44145;SDS011;29809;52.432;4.780;2024-03-08T11:43:00;15.77;;;14.30;;
44145;SDS011;29809;52.432;4.780;2024-03-08T11:45:28;16.30;;;14.70;;
44145;SDS011;29809;52.432;4.780;2024-03-08T11:47:53;16.65;;;15.10;;
44145;SDS011;29809;52.432;4.780;2024-03-08T11:50:19;18.02;;;16.15;;
44145;SDS011;29809;52.432;4.780;2024-03-08T11:52:46;17.63;;;16.02;;
44145;SDS011;29809;52.432;4.780;2024-03-08T11:55:11;17.65;;;15.98;;
44145;SDS011;29809;52.432;4.780;2024-03-08T11:57:37;17.67;;;15.93;;
44145;SDS011;29809;52.432;4.780;2024-03-08T12:00:03;18.23;;;16.52;;
44145;SDS011;29809;52.432;4.780;2024-03-08T12:02:32;18.23;;;16.42;;
44145;SDS011;29809;52.432;4.780;2024-03-08T12:04:57;17.52;;;15.77;;
44145;SDS011;29809;52.432;4.780;2024-03-08T12:07:24;18.13;;;16.45;;
44145;SDS011;29809;52.432;4.780;2024-03-08T12:12:48;17.23;;;15.50;;
44145;SDS011;29809;52.432;4.780;2024-03-08T12:15:15;17.35;;;15.60;;
44145;SDS011;29809;52.432;4.780;2024-03-08T12:17:40;16.92;;;15.32;;
44145;SDS011;29809;52.432;4.780;2024-03-08T12:20:26;17.58;;;15.98;;
44145;SDS011;29809;52.432;4.780;2024-03-08T12:22:54;17.88;;;16.17;;
44145;SDS011;29809;52.432;4.780;2024-03-08T12:25:23;19.67;;;17.77;;
44145;SDS011;29809;52.432;4.780;2024-03-08T12:27:51;17.48;;;15.68;;
44145;SDS011;29809;52.432;4.780;2024-03-08T12:35:19;18.10;;;16.40;;
44145;SDS011;29809;52.432;4.780;2024-03-08T12:37:47;17.83;;;16.13;;
44145;SDS011;29809;52.432;4.780;2024-03-08T12:40:14;16.47;;;15.00;;
44145;SDS011;29809;52.432;4.780;2024-03-08T12:42:41;18.60;;;16.75;;
44145;SDS011;29809;52.432;4.780;2024-03-08T12:45:07;17.60;;;15.90;;
44145;SDS011;29809;52.432;4.780;2024-03-08T12:47:35;18.75;;;16.80;;
44145;SDS011;29809;52.432;4.780;2024-03-08T12:50:00;18.17;;;16.30;;
44145;SDS011;29809;52.432;4.780;2024-03-08T12:52:25;18.15;;;16.33;;
44145;SDS011;29809;52.432;4.780;2024-03-08T12:54:51;17.70;;;16.10;;
44145;SDS011;29809;52.432;4.780;2024-03-08T12:57:16;17.30;;;15.63;;
44145;SDS011;29809;52.432;4.780;2024-03-08T12:59:42;19.10;;;17.25;;
44145;SDS011;29809;52.432;4.780;2024-03-08T13:02:07;17.00;;;15.43;;
44145;SDS011;29809;52.432;4.780;2024-03-08T13:04:36;17.40;;;15.73;;
44145;SDS011;29809;52.432;4.780;2024-03-08T13:07:01;17.33;;;15.65;;
44145;SDS011;29809;52.432;4.780;2024-03-08T13:09:27;16.48;;;14.95;;
44145;SDS011;29809;52.432;4.780;2024-03-08T13:11:52;17.27;;;15.60;;
44145;SDS011;29809;52.432;4.780;2024-03-08T13:14:19;16.23;;;14.73;;
44145;SDS011;29809;52.432;4.780;2024-03-08T13:16:45;16.97;;;15.27;;
44145;SDS011;29809;52.432;4.780;2024-03-08T13:19:13;16.57;;;15.10;;
44145;SDS011;29809;52.432;4.780;2024-03-08T13:21:38;16.75;;;15.20;;
44145;SDS011;29809;52.432;4.780;2024-03-08T13:24:03;15.07;;;13.57;;
44145;SDS011;29809;52.432;4.780;2024-03-08T13:26:28;14.00;;;12.70;;
44145;SDS011;29809;52.432;4.780;2024-03-08T13:28:57;15.63;;;14.02;;
44145;SDS011;29809;52.432;4.780;2024-03-08T13:31:23;16.48;;;14.88;;
44145;SDS011;29809;52.432;4.780;2024-03-08T13:33:48;14.55;;;13.25;;
44145;SDS011;29809;52.432;4.780;2024-03-08T13:36:15;15.18;;;13.77;;
44145;SDS011;29809;52.432;4.780;2024-03-08T13:38:44;16.08;;;14.57;;
44145;SDS011;29809;52.432;4.780;2024-03-08T13:41:10;16.17;;;14.43;;
44145;SDS011;29809;52.432;4.780;2024-03-08T13:43:36;15.63;;;13.82;;
44145;SDS011;29809;52.432;4.780;2024-03-08T13:46:02;15.07;;;13.68;;
44145;SDS011;29809;52.432;4.780;2024-03-08T13:48:27;14.88;;;13.48;;
44145;SDS011;29809;52.432;4.780;2024-03-08T13:50:53;15.65;;;14.18;;
44145;SDS011;29809;52.432;4.780;2024-03-08T13:53:18;14.73;;;13.40;;
44145;SDS011;29809;52.432;4.780;2024-03-08T13:55:43;15.50;;;13.90;;
44145;SDS011;29809;52.432;4.780;2024-03-08T13:58:08;15.55;;;14.15;;
44145;SDS011;29809;52.432;4.780;2024-03-08T14:00:35;15.50;;;14.02;;
44145;SDS011;29809;52.432;4.780;2024-03-08T14:03:01;13.32;;;11.95;;
44145;SDS011;29809;52.432;4.780;2024-03-08T14:05:30;14.55;;;13.15;;
44145;SDS011;29809;52.432;4.780;2024-03-08T14:08:04;14.20;;;12.80;;
44145;SDS011;29809;52.432;4.780;2024-03-08T14:10:29;14.02;;;12.73;;
44145;SDS011;29809;52.432;4.780;2024-03-08T14:12:56;12.75;;;11.55;;
44145;SDS011;29809;52.432;4.780;2024-03-08T14:15:21;14.57;;;13.10;;
44145;SDS011;29809;52.432;4.780;2024-03-08T14:17:52;14.65;;;13.18;;
44145;SDS011;29809;52.432;4.780;2024-03-08T14:20:17;13.40;;;12.15;;
44145;SDS011;29809;52.432;4.780;2024-03-08T14:22:42;12.98;;;11.82;;
44145;SDS011;29809;52.432;4.780;2024-03-08T14:25:08;13.35;;;12.05;;
44145;SDS011;29809;52.432;4.780;2024-03-08T14:27:41;12.55;;;11.45;;
44145;SDS011;29809;52.432;4.780;2024-03-08T14:30:09;13.60;;;12.20;;
44145;SDS011;29809;52.432;4.780;2024-03-08T14:32:35;13.43;;;12.13;;
44145;SDS011;29809;52.432;4.780;2024-03-08T14:35:03;12.02;;;10.88;;
44145;SDS011;29809;52.432;4.780;2024-03-08T14:37:29;13.00;;;11.80;;
44145;SDS011;29809;52.432;4.780;2024-03-08T14:39:54;11.77;;;10.68;;
44145;SDS011;29809;52.432;4.780;2024-03-08T14:42:19;11.50;;;10.45;;
44145;SDS011;29809;52.432;4.780;2024-03-08T14:44:46;12.68;;;11.48;;
44145;SDS011;29809;52.432;4.780;2024-03-08T14:47:16;12.13;;;10.93;;